sensor_id;sensor_type;location;lat;lon;timestamp;temperature;humidity
26270;DHT22;15937;50.612;6.656;2023-08-08T00:00:14;13.70;99.90
26270;DHT22;15937;50.612;6.656;2023-08-08T00:04:15;13.60;99.90
26270;DHT22;15937;50.612;6.656;2023-08-08T00:08:17;13.60;99.90
26270;DHT22;15937;50.612;6.656;2023-08-08T00:12:19;13.70;99.90
26270;DHT22;15937;50.612;6.656;2023-08-08T00:16:21;13.60;99.90
26270;DHT22;15937;50.612;6.656;2023-08-08T00:20:24;13.50;99.90
26270;DHT22;15937;50.612;6.656;2023-08-08T00:24:26;13.40;99.90
26270;DHT22;15937;50.612;6.656;2023-08-08T00:28:27;13.50;99.90
26270;DHT22;15937;50.612;6.656;2023-08-08T00:32:29;13.40;99.90
26270;DHT22;15937;50.612;6.656;2023-08-08T00:36:31;13.40;99.90
26270;DHT22;15937;50.612;6.656;2023-08-08T00:40:33;13.30;99.90
26270;DHT22;15937;50.612;6.656;2023-08-08T00:44:35;13.30;99.90
26270;DHT22;15937;50.612;6.656;2023-08-08T00:48:38;13.30;99.90
26270;DHT22;15937;50.612;6.656;2023-08-08T00:52:41;13.40;99.90
26270;DHT22;15937;50.612;6.656;2023-08-08T00:56:43;13.40;99.90
26270;DHT22;15937;50.612;6.656;2023-08-08T01:00:45;13.40;99.90
26270;DHT22;15937;50.612;6.656;2023-08-08T01:04:47;13.40;99.90
26270;DHT22;15937;50.612;6.656;2023-08-08T01:08:58;13.50;99.90
26270;DHT22;15937;50.612;6.656;2023-08-08T01:13:05;13.40;99.90
26270;DHT22;15937;50.612;6.656;2023-08-08T01:17:10;13.40;99.90
26270;DHT22;15937;50.612;6.656;2023-08-08T01:21:12;13.40;99.90
26270;DHT22;15937;50.612;6.656;2023-08-08T01:25:15;13.30;99.90
26270;DHT22;15937;50.612;6.656;2023-08-08T01:29:17;13.30;99.90
26270;DHT22;15937;50.612;6.656;2023-08-08T01:33:19;13.30;99.90
26270;DHT22;15937;50.612;6.656;2023-08-08T01:37:29;13.30;99.90
26270;DHT22;15937;50.612;6.656;2023-08-08T01:41:33;13.20;99.90
26270;DHT22;15937;50.612;6.656;2023-08-08T01:45:36;13.30;99.90
26270;DHT22;15937;50.612;6.656;2023-08-08T01:49:40;13.30;99.90
26270;DHT22;15937;50.612;6.656;2023-08-08T01:53:42;13.30;99.90
26270;DHT22;15937;50.612;6.656;2023-08-08T01:57:43;13.20;99.90
26270;DHT22;15937;50.612;6.656;2023-08-08T02:01:45;13.20;99.90
26270;DHT22;15937;50.612;6.656;2023-08-08T02:05:47;13.10;99.90
26270;DHT22;15937;50.612;6.656;2023-08-08T02:09:49;13.00;99.90
26270;DHT22;15937;50.612;6.656;2023-08-08T02:13:52;13.10;99.90
26270;DHT22;15937;50.612;6.656;2023-08-08T02:17:54;13.10;99.90
26270;DHT22;15937;50.612;6.656;2023-08-08T02:21:55;13.00;99.90
26270;DHT22;15937;50.612;6.656;2023-08-08T02:25:58;13.00;99.90
26270;DHT22;15937;50.612;6.656;2023-08-08T02:29:59;13.00;99.90
26270;DHT22;15937;50.612;6.656;2023-08-08T02:34:01;12.90;99.90
26270;DHT22;15937;50.612;6.656;2023-08-08T02:38:03;12.90;99.90
26270;DHT22;15937;50.612;6.656;2023-08-08T02:42:05;12.90;99.90
26270;DHT22;15937;50.612;6.656;2023-08-08T02:46:07;12.80;99.90
26270;DHT22;15937;50.612;6.656;2023-08-08T02:50:09;12.80;99.90
26270;DHT22;15937;50.612;6.656;2023-08-08T02:54:11;12.80;99.90
26270;DHT22;15937;50.612;6.656;2023-08-08T02:58:13;12.80;99.90
26270;DHT22;15937;50.612;6.656;2023-08-08T03:02:14;12.70;99.90
26270;DHT22;15937;50.612;6.656;2023-08-08T03:06:16;12.70;99.90
26270;DHT22;15937;50.612;6.656;2023-08-08T03:10:18;12.60;99.90
26270;DHT22;15937;50.612;6.656;2023-08-08T03:14:20;12.60;99.90
26270;DHT22;15937;50.612;6.656;2023-08-08T03:18:22;12.60;99.90
26270;DHT22;15937;50.612;6.656;2023-08-08T03:22:24;12.60;99.90
26270;DHT22;15937;50.612;6.656;2023-08-08T03:26:26;12.60;99.90
26270;DHT22;15937;50.612;6.656;2023-08-08T03:30:28;12.50;99.90
26270;DHT22;15937;50.612;6.656;2023-08-08T03:34:30;12.50;99.90
26270;DHT22;15937;50.612;6.656;2023-08-08T03:38:32;12.50;99.90
26270;DHT22;15937;50.612;6.656;2023-08-08T03:42:33;12.50;99.90
26270;DHT22;15937;50.612;6.656;2023-08-08T03:46:35;12.40;99.90
26270;DHT22;15937;50.612;6.656;2023-08-08T03:50:37;12.30;99.90
26270;DHT22;15937;50.612;6.656;2023-08-08T03:54:39;12.40;99.90
26270;DHT22;15937;50.612;6.656;2023-08-08T03:58:41;12.30;99.90
26270;DHT22;15937;50.612;6.656;2023-08-08T04:02:43;12.30;99.90
26270;DHT22;15937;50.612;6.656;2023-08-08T04:06:44;12.20;99.90
26270;DHT22;15937;50.612;6.656;2023-08-08T04:10:47;12.20;99.90
26270;DHT22;15937;50.612;6.656;2023-08-08T04:14:49;12.10;99.90
26270;DHT22;15937;50.612;6.656;2023-08-08T04:18:50;12.10;99.90
26270;DHT22;15937;50.612;6.656;2023-08-08T04:22:52;12.00;99.90
26270;DHT22;15937;50.612;6.656;2023-08-08T04:26:54;12.10;99.90
26270;DHT22;15937;50.612;6.656;2023-08-08T04:30:56;12.10;99.90
26270;DHT22;15937;50.612;6.656;2023-08-08T04:34:57;12.10;99.90
26270;DHT22;15937;50.612;6.656;2023-08-08T04:38:59;12.20;99.90
26270;DHT22;15937;50.612;6.656;2023-08-08T04:43:01;12.30;99.90
26270;DHT22;15937;50.612;6.656;2023-08-08T04:47:04;12.40;99.90
26270;DHT22;15937;50.612;6.656;2023-08-08T04:51:06;12.50;99.90
26270;DHT22;15937;50.612;6.656;2023-08-08T04:55:08;12.50;99.90
26270;DHT22;15937;50.612;6.656;2023-08-08T04:59:10;12.60;99.90
26270;DHT22;15937;50.612;6.656;2023-08-08T05:03:11;12.70;99.90
26270;DHT22;15937;50.612;6.656;2023-08-08T05:07:13;12.80;99.90
26270;DHT22;15937;50.612;6.656;2023-08-08T05:11:15;12.90;99.90
26270;DHT22;15937;50.612;6.656;2023-08-08T05:15:17;13.10;99.90
26270;DHT22;15937;50.612;6.656;2023-08-08T05:19:19;13.20;99.90
26270;DHT22;15937;50.612;6.656;2023-08-08T05:23:21;13.30;99.90
26270;DHT22;15937;50.612;6.656;2023-08-08T05:27:23;13.40;99.90
26270;DHT22;15937;50.612;6.656;2023-08-08T05:31:24;13.50;99.90
26270;DHT22;15937;50.612;6.656;2023-08-08T05:35:26;13.50;99.90
26270;DHT22;15937;50.612;6.656;2023-08-08T05:39:29;13.70;99.90
26270;DHT22;15937;50.612;6.656;2023-08-08T05:43:32;13.70;99.90
26270;DHT22;15937;50.612;6.656;2023-08-08T05:47:34;13.90;99.90
26270;DHT22;15937;50.612;6.656;2023-08-08T05:51:35;14.00;99.90
26270;DHT22;15937;50.612;6.656;2023-08-08T05:55:37;14.10;99.90
26270;DHT22;15937;50.612;6.656;2023-08-08T05:59:42;14.30;99.90
26270;DHT22;15937;50.612;6.656;2023-08-08T06:03:46;14.30;99.90
26270;DHT22;15937;50.612;6.656;2023-08-08T06:07:48;14.40;99.90
26270;DHT22;15937;50.612;6.656;2023-08-08T06:11:50;14.60;99.90
26270;DHT22;15937;50.612;6.656;2023-08-08T06:15:52;14.70;99.90
26270;DHT22;15937;50.612;6.656;2023-08-08T06:19:55;15.00;99.90
26270;DHT22;15937;50.612;6.656;2023-08-08T06:23:58;15.00;99.90
26270;DHT22;15937;50.612;6.656;2023-08-08T06:28:00;14.80;99.90
26270;DHT22;15937;50.612;6.656;2023-08-08T06:32:02;15.30;99.90
26270;DHT22;15937;50.612;6.656;2023-08-08T06:36:04;15.30;99.90
26270;DHT22;15937;50.612;6.656;2023-08-08T06:40:07;15.00;99.90
26270;DHT22;15937;50.612;6.656;2023-08-08T06:44:09;15.50;99.90
26270;DHT22;15937;50.612;6.656;2023-08-08T06:48:12;15.40;99.90
26270;DHT22;15937;50.612;6.656;2023-08-08T06:52:13;15.70;99.90
26270;DHT22;15937;50.612;6.656;2023-08-08T06:56:15;15.70;99.90
26270;DHT22;15937;50.612;6.656;2023-08-08T07:00:17;15.70;99.90
26270;DHT22;15937;50.612;6.656;2023-08-08T07:04:19;15.70;99.90
26270;DHT22;15937;50.612;6.656;2023-08-08T07:08:21;16.10;99.90
26270;DHT22;15937;50.612;6.656;2023-08-08T07:12:23;16.50;99.90
26270;DHT22;15937;50.612;6.656;2023-08-08T07:16:25;16.60;99.90
26270;DHT22;15937;50.612;6.656;2023-08-08T07:20:27;16.50;99.90
26270;DHT22;15937;50.612;6.656;2023-08-08T07:24:28;16.30;99.90
26270;DHT22;15937;50.612;6.656;2023-08-08T07:28:30;16.40;99.90
26270;DHT22;15937;50.612;6.656;2023-08-08T07:32:33;16.50;99.90
26270;DHT22;15937;50.612;6.656;2023-08-08T07:36:36;16.50;99.90
26270;DHT22;15937;50.612;6.656;2023-08-08T07:40:37;16.40;99.90
26270;DHT22;15937;50.612;6.656;2023-08-08T07:44:42;16.20;99.90
26270;DHT22;15937;50.612;6.656;2023-08-08T07:48:44;16.80;99.90
26270;DHT22;15937;50.612;6.656;2023-08-08T07:52:46;17.10;99.90
26270;DHT22;15937;50.612;6.656;2023-08-08T07:56:48;17.30;99.90
26270;DHT22;15937;50.612;6.656;2023-08-08T08:00:50;17.10;99.90
26270;DHT22;15937;50.612;6.656;2023-08-08T08:04:53;16.90;99.90
26270;DHT22;15937;50.612;6.656;2023-08-08T08:08:55;17.10;99.90
26270;DHT22;15937;50.612;6.656;2023-08-08T08:12:57;16.90;99.90
26270;DHT22;15937;50.612;6.656;2023-08-08T08:17:00;16.80;99.90
26270;DHT22;15937;50.612;6.656;2023-08-08T08:21:03;17.00;99.90
26270;DHT22;15937;50.612;6.656;2023-08-08T08:25:06;16.80;99.90
26270;DHT22;15937;50.612;6.656;2023-08-08T08:29:10;16.80;99.90
26270;DHT22;15937;50.612;6.656;2023-08-08T08:33:12;17.00;99.90
26270;DHT22;15937;50.612;6.656;2023-08-08T08:37:14;16.80;99.90
26270;DHT22;15937;50.612;6.656;2023-08-08T08:41:18;17.10;99.90
26270;DHT22;15937;50.612;6.656;2023-08-08T08:45:22;17.20;99.90
26270;DHT22;15937;50.612;6.656;2023-08-08T08:49:25;16.90;99.90
26270;DHT22;15937;50.612;6.656;2023-08-08T08:53:29;17.30;99.90
26270;DHT22;15937;50.612;6.656;2023-08-08T08:57:31;17.30;99.90
26270;DHT22;15937;50.612;6.656;2023-08-08T09:01:34;17.30;99.90
26270;DHT22;15937;50.612;6.656;2023-08-08T09:05:39;17.40;99.90
26270;DHT22;15937;50.612;6.656;2023-08-08T09:09:44;17.50;99.90
26270;DHT22;15937;50.612;6.656;2023-08-08T09:13:46;17.70;99.90
26270;DHT22;15937;50.612;6.656;2023-08-08T09:17:48;17.50;99.90
26270;DHT22;15937;50.612;6.656;2023-08-08T09:21:51;17.60;99.90
26270;DHT22;15937;50.612;6.656;2023-08-08T09:25:53;17.30;99.90
26270;DHT22;15937;50.612;6.656;2023-08-08T09:29:55;17.40;99.90
26270;DHT22;15937;50.612;6.656;2023-08-08T09:34:01;17.50;99.90
26270;DHT22;15937;50.612;6.656;2023-08-08T09:38:03;17.60;99.90
26270;DHT22;15937;50.612;6.656;2023-08-08T09:42:07;17.10;99.90
26270;DHT22;15937;50.612;6.656;2023-08-08T09:46:12;17.30;99.90
26270;DHT22;15937;50.612;6.656;2023-08-08T09:50:15;17.70;99.90
26270;DHT22;15937;50.612;6.656;2023-08-08T09:54:17;17.60;99.90
26270;DHT22;15937;50.612;6.656;2023-08-08T09:58:20;17.90;99.90
26270;DHT22;15937;50.612;6.656;2023-08-08T10:02:22;17.50;99.90
26270;DHT22;15937;50.612;6.656;2023-08-08T10:06:24;17.70;99.90
26270;DHT22;15937;50.612;6.656;2023-08-08T10:10:26;17.50;99.90
26270;DHT22;15937;50.612;6.656;2023-08-08T10:14:34;17.50;99.90
26270;DHT22;15937;50.612;6.656;2023-08-08T10:18:36;17.90;99.90
26270;DHT22;15937;50.612;6.656;2023-08-08T10:22:42;17.40;99.90
26270;DHT22;15937;50.612;6.656;2023-08-08T10:26:57;18.10;99.90
26270;DHT22;15937;50.612;6.656;2023-08-08T10:31:02;17.80;99.90
26270;DHT22;15937;50.612;6.656;2023-08-08T10:35:06;17.70;99.90
26270;DHT22;15937;50.612;6.656;2023-08-08T10:39:14;17.90;99.90
26270;DHT22;15937;50.612;6.656;2023-08-08T10:43:16;17.60;99.90
26270;DHT22;15937;50.612;6.656;2023-08-08T10:47:34;17.40;99.90
26270;DHT22;15937;50.612;6.656;2023-08-08T10:51:42;17.40;99.90
26270;DHT22;15937;50.612;6.656;2023-08-08T10:55:45;17.50;99.90
26270;DHT22;15937;50.612;6.656;2023-08-08T10:59:47;17.40;99.90
26270;DHT22;15937;50.612;6.656;2023-08-08T11:03:50;17.90;99.90
26270;DHT22;15937;50.612;6.656;2023-08-08T11:07:52;17.90;99.90
26270;DHT22;15937;50.612;6.656;2023-08-08T11:11:54;18.10;99.90
26270;DHT22;15937;50.612;6.656;2023-08-08T11:15:56;17.90;99.90
26270;DHT22;15937;50.612;6.656;2023-08-08T11:19:58;17.90;99.90
26270;DHT22;15937;50.612;6.656;2023-08-08T11:24:00;17.80;99.90
26270;DHT22;15937;50.612;6.656;2023-08-08T11:28:03;17.70;99.90
26270;DHT22;15937;50.612;6.656;2023-08-08T11:32:06;17.50;99.90
26270;DHT22;15937;50.612;6.656;2023-08-08T11:36:09;17.30;99.90
26270;DHT22;15937;50.612;6.656;2023-08-08T11:40:12;17.30;99.90
26270;DHT22;15937;50.612;6.656;2023-08-08T11:44:15;17.40;99.90
26270;DHT22;15937;50.612;6.656;2023-08-08T11:48:20;17.20;99.90
26270;DHT22;15937;50.612;6.656;2023-08-08T11:52:24;17.40;99.90
26270;DHT22;15937;50.612;6.656;2023-08-08T11:56:33;17.50;99.90
26270;DHT22;15937;50.612;6.656;2023-08-08T12:00:35;17.50;99.90
26270;DHT22;15937;50.612;6.656;2023-08-08T12:04:38;17.50;99.90
26270;DHT22;15937;50.612;6.656;2023-08-08T12:08:44;17.40;99.90
26270;DHT22;15937;50.612;6.656;2023-08-08T12:12:51;17.60;99.90
26270;DHT22;15937;50.612;6.656;2023-08-08T12:16:54;17.60;99.90
26270;DHT22;15937;50.612;6.656;2023-08-08T12:20:56;17.40;99.90
26270;DHT22;15937;50.612;6.656;2023-08-08T12:24:58;17.20;99.90
26270;DHT22;15937;50.612;6.656;2023-08-08T12:29:00;17.20;99.90
26270;DHT22;15937;50.612;6.656;2023-08-08T12:33:02;17.30;99.90
26270;DHT22;15937;50.612;6.656;2023-08-08T12:37:03;17.40;99.90
26270;DHT22;15937;50.612;6.656;2023-08-08T12:41:05;17.30;99.90
26270;DHT22;15937;50.612;6.656;2023-08-08T12:45:08;16.90;99.90
26270;DHT22;15937;50.612;6.656;2023-08-08T12:49:11;17.00;99.90
26270;DHT22;15937;50.612;6.656;2023-08-08T12:53:13;17.30;99.90
26270;DHT22;15937;50.612;6.656;2023-08-08T12:57:15;17.30;99.90
26270;DHT22;15937;50.612;6.656;2023-08-08T13:01:17;17.30;99.90
26270;DHT22;15937;50.612;6.656;2023-08-08T13:05:19;17.30;99.90
26270;DHT22;15937;50.612;6.656;2023-08-08T13:09:20;17.40;99.90
26270;DHT22;15937;50.612;6.656;2023-08-08T13:13:22;17.50;99.90
26270;DHT22;15937;50.612;6.656;2023-08-08T13:17:26;17.50;99.90
26270;DHT22;15937;50.612;6.656;2023-08-08T13:21:28;17.20;99.90
26270;DHT22;15937;50.612;6.656;2023-08-08T13:25:30;17.20;99.90
26270;DHT22;15937;50.612;6.656;2023-08-08T13:29:33;17.10;99.90
26270;DHT22;15937;50.612;6.656;2023-08-08T13:33:35;17.10;99.90
26270;DHT22;15937;50.612;6.656;2023-08-08T13:37:37;16.90;99.90
26270;DHT22;15937;50.612;6.656;2023-08-08T13:41:39;16.70;99.90
26270;DHT22;15937;50.612;6.656;2023-08-08T13:45:55;16.90;99.90
26270;DHT22;15937;50.612;6.656;2023-08-08T13:50:20;16.80;99.90
26270;DHT22;15937;50.612;6.656;2023-08-08T13:55:19;16.70;99.90
26270;DHT22;15937;50.612;6.656;2023-08-08T13:59:59;17.10;99.90
26270;DHT22;15937;50.612;6.656;2023-08-08T14:04:23;17.60;99.90
26270;DHT22;15937;50.612;6.656;2023-08-08T14:08:29;17.50;99.90
26270;DHT22;15937;50.612;6.656;2023-08-08T14:12:31;17.70;99.90
26270;DHT22;15937;50.612;6.656;2023-08-08T14:16:33;17.90;99.90
26270;DHT22;15937;50.612;6.656;2023-08-08T14:20:35;18.10;99.90
26270;DHT22;15937;50.612;6.656;2023-08-08T14:24:37;18.10;99.90
26270;DHT22;15937;50.612;6.656;2023-08-08T14:28:39;18.10;99.90
26270;DHT22;15937;50.612;6.656;2023-08-08T14:32:41;18.10;99.90
26270;DHT22;15937;50.612;6.656;2023-08-08T14:36:43;18.20;99.90
26270;DHT22;15937;50.612;6.656;2023-08-08T14:40:45;18.40;99.90
26270;DHT22;15937;50.612;6.656;2023-08-08T14:44:47;18.60;99.90
26270;DHT22;15937;50.612;6.656;2023-08-08T14:48:49;18.50;99.90
26270;DHT22;15937;50.612;6.656;2023-08-08T14:52:51;18.50;99.90
26270;DHT22;15937;50.612;6.656;2023-08-08T14:56:52;18.10;99.90
26270;DHT22;15937;50.612;6.656;2023-08-08T15:00:54;18.10;99.90
26270;DHT22;15937;50.612;6.656;2023-08-08T15:04:56;18.10;99.90
26270;DHT22;15937;50.612;6.656;2023-08-08T15:08:58;17.80;99.90
26270;DHT22;15937;50.612;6.656;2023-08-08T15:13:00;17.70;99.90
26270;DHT22;15937;50.612;6.656;2023-08-08T15:17:02;17.60;99.90
26270;DHT22;15937;50.612;6.656;2023-08-08T15:21:04;17.60;99.90
26270;DHT22;15937;50.612;6.656;2023-08-08T15:25:06;17.80;99.90
26270;DHT22;15937;50.612;6.656;2023-08-08T15:29:08;17.50;99.90
26270;DHT22;15937;50.612;6.656;2023-08-08T15:33:10;17.30;99.90
26270;DHT22;15937;50.612;6.656;2023-08-08T15:37:12;16.90;99.90
26270;DHT22;15937;50.612;6.656;2023-08-08T15:46:36;17.30;99.90
26270;DHT22;15937;50.612;6.656;2023-08-08T15:51:01;17.40;99.90
26270;DHT22;15937;50.612;6.656;2023-08-08T15:55:26;17.60;99.90
26270;DHT22;15937;50.612;6.656;2023-08-08T15:59:44;17.80;99.90
26270;DHT22;15937;50.612;6.656;2023-08-08T16:03:56;18.00;99.90
26270;DHT22;15937;50.612;6.656;2023-08-08T16:08:03;18.10;99.90
26270;DHT22;15937;50.612;6.656;2023-08-08T16:12:49;18.00;99.90
26270;DHT22;15937;50.612;6.656;2023-08-08T16:17:10;17.90;99.90
26270;DHT22;15937;50.612;6.656;2023-08-08T16:21:16;18.00;99.90
26270;DHT22;15937;50.612;6.656;2023-08-08T16:25:18;18.10;99.90
26270;DHT22;15937;50.612;6.656;2023-08-08T16:29:20;17.80;99.90
26270;DHT22;15937;50.612;6.656;2023-08-08T16:33:22;17.70;99.90
26270;DHT22;15937;50.612;6.656;2023-08-08T16:37:24;17.90;99.90
26270;DHT22;15937;50.612;6.656;2023-08-08T16:41:26;17.80;99.90
26270;DHT22;15937;50.612;6.656;2023-08-08T16:45:28;17.50;99.90
26270;DHT22;15937;50.612;6.656;2023-08-08T16:49:30;17.60;99.90
26270;DHT22;15937;50.612;6.656;2023-08-08T16:53:33;17.80;99.90
26270;DHT22;15937;50.612;6.656;2023-08-08T16:57:35;17.90;99.90
26270;DHT22;15937;50.612;6.656;2023-08-08T17:01:36;18.00;99.90
26270;DHT22;15937;50.612;6.656;2023-08-08T17:05:42;17.80;99.90
26270;DHT22;15937;50.612;6.656;2023-08-08T17:09:44;17.60;99.90
26270;DHT22;15937;50.612;6.656;2023-08-08T17:13:45;17.60;99.90
26270;DHT22;15937;50.612;6.656;2023-08-08T17:17:49;17.70;99.90
26270;DHT22;15937;50.612;6.656;2023-08-08T17:21:51;17.80;99.90
26270;DHT22;15937;50.612;6.656;2023-08-08T17:25:53;17.80;99.90
26270;DHT22;15937;50.612;6.656;2023-08-08T17:29:59;17.80;99.90
26270;DHT22;15937;50.612;6.656;2023-08-08T17:34:01;17.90;99.90
26270;DHT22;15937;50.612;6.656;2023-08-08T17:38:07;18.00;99.90
26270;DHT22;15937;50.612;6.656;2023-08-08T17:42:08;17.90;99.90
26270;DHT22;15937;50.612;6.656;2023-08-08T17:46:10;17.60;99.90
26270;DHT22;15937;50.612;6.656;2023-08-08T17:50:12;17.60;99.90
26270;DHT22;15937;50.612;6.656;2023-08-08T17:54:14;17.90;99.90
26270;DHT22;15937;50.612;6.656;2023-08-08T17:58:16;18.00;99.90
26270;DHT22;15937;50.612;6.656;2023-08-08T18:02:18;17.90;99.90
26270;DHT22;15937;50.612;6.656;2023-08-08T18:06:20;17.90;99.90
26270;DHT22;15937;50.612;6.656;2023-08-08T18:10:23;18.00;99.90
26270;DHT22;15937;50.612;6.656;2023-08-08T18:14:25;17.80;99.90
26270;DHT22;15937;50.612;6.656;2023-08-08T18:18:27;17.60;99.90
26270;DHT22;15937;50.612;6.656;2023-08-08T18:22:29;17.50;99.90
26270;DHT22;15937;50.612;6.656;2023-08-08T18:26:31;17.50;99.90
26270;DHT22;15937;50.612;6.656;2023-08-08T18:30:34;17.40;99.90
26270;DHT22;15937;50.612;6.656;2023-08-08T18:34:36;17.30;99.90
26270;DHT22;15937;50.612;6.656;2023-08-08T18:38:38;17.30;99.90
26270;DHT22;15937;50.612;6.656;2023-08-08T18:42:40;17.20;99.90
26270;DHT22;15937;50.612;6.656;2023-08-08T18:46:42;17.20;99.90
26270;DHT22;15937;50.612;6.656;2023-08-08T18:50:48;17.20;99.90
26270;DHT22;15937;50.612;6.656;2023-08-08T18:54:50;17.20;99.90
26270;DHT22;15937;50.612;6.656;2023-08-08T18:58:52;17.00;99.90
26270;DHT22;15937;50.612;6.656;2023-08-08T19:02:54;17.10;99.90
26270;DHT22;15937;50.612;6.656;2023-08-08T19:06:56;17.00;99.90
26270;DHT22;15937;50.612;6.656;2023-08-08T19:10:57;17.00;99.90
26270;DHT22;15937;50.612;6.656;2023-08-08T19:14:59;16.80;99.90
26270;DHT22;15937;50.612;6.656;2023-08-08T19:19:02;16.90;99.90
26270;DHT22;15937;50.612;6.656;2023-08-08T19:23:07;16.90;99.90
26270;DHT22;15937;50.612;6.656;2023-08-08T19:27:10;16.70;99.90
26270;DHT22;15937;50.612;6.656;2023-08-08T19:31:12;16.70;99.90
26270;DHT22;15937;50.612;6.656;2023-08-08T19:35:13;16.80;99.90
26270;DHT22;15937;50.612;6.656;2023-08-08T19:39:15;16.60;99.90
26270;DHT22;15937;50.612;6.656;2023-08-08T19:43:17;16.50;99.90
26270;DHT22;15937;50.612;6.656;2023-08-08T19:47:19;16.40;99.90
26270;DHT22;15937;50.612;6.656;2023-08-08T19:51:21;16.40;99.90
26270;DHT22;15937;50.612;6.656;2023-08-08T19:55:24;16.20;99.90
26270;DHT22;15937;50.612;6.656;2023-08-08T19:59:26;16.20;99.90
26270;DHT22;15937;50.612;6.656;2023-08-08T20:03:28;16.00;99.90
26270;DHT22;15937;50.612;6.656;2023-08-08T20:07:29;16.10;99.90
26270;DHT22;15937;50.612;6.656;2023-08-08T20:11:31;16.00;99.90
26270;DHT22;15937;50.612;6.656;2023-08-08T20:15:33;15.90;99.90
26270;DHT22;15937;50.612;6.656;2023-08-08T20:19:35;15.90;99.90
26270;DHT22;15937;50.612;6.656;2023-08-08T20:23:37;15.80;99.90
26270;DHT22;15937;50.612;6.656;2023-08-08T20:27:39;15.80;99.90
26270;DHT22;15937;50.612;6.656;2023-08-08T20:31:41;15.80;99.90
26270;DHT22;15937;50.612;6.656;2023-08-08T20:35:44;15.80;99.90
26270;DHT22;15937;50.612;6.656;2023-08-08T20:39:47;15.70;99.90
26270;DHT22;15937;50.612;6.656;2023-08-08T20:43:49;15.80;99.90
26270;DHT22;15937;50.612;6.656;2023-08-08T20:47:51;15.90;99.90
26270;DHT22;15937;50.612;6.656;2023-08-08T20:51:54;15.80;99.90
26270;DHT22;15937;50.612;6.656;2023-08-08T20:55:56;15.70;99.90
26270;DHT22;15937;50.612;6.656;2023-08-08T20:59:59;15.80;99.90
26270;DHT22;15937;50.612;6.656;2023-08-08T21:04:01;15.70;99.90
26270;DHT22;15937;50.612;6.656;2023-08-08T21:08:03;15.80;99.90
26270;DHT22;15937;50.612;6.656;2023-08-08T21:12:05;15.50;99.90
26270;DHT22;15937;50.612;6.656;2023-08-08T21:16:07;15.60;99.90
26270;DHT22;15937;50.612;6.656;2023-08-08T21:20:10;15.60;99.90
26270;DHT22;15937;50.612;6.656;2023-08-08T21:24:12;15.60;99.90
26270;DHT22;15937;50.612;6.656;2023-08-08T21:28:13;15.60;99.90
26270;DHT22;15937;50.612;6.656;2023-08-08T21:32:15;15.50;99.90
26270;DHT22;15937;50.612;6.656;2023-08-08T21:36:17;15.50;99.90
26270;DHT22;15937;50.612;6.656;2023-08-08T21:40:19;15.50;99.90
26270;DHT22;15937;50.612;6.656;2023-08-08T21:44:21;15.50;99.90
26270;DHT22;15937;50.612;6.656;2023-08-08T21:48:23;15.50;99.90
26270;DHT22;15937;50.612;6.656;2023-08-08T21:52:24;15.40;99.90
26270;DHT22;15937;50.612;6.656;2023-08-08T21:56:26;15.40;99.90
26270;DHT22;15937;50.612;6.656;2023-08-08T22:00:28;15.40;99.90
26270;DHT22;15937;50.612;6.656;2023-08-08T22:04:30;15.40;99.90
26270;DHT22;15937;50.612;6.656;2023-08-08T22:08:32;15.40;99.90
26270;DHT22;15937;50.612;6.656;2023-08-08T22:12:34;15.40;99.90
26270;DHT22;15937;50.612;6.656;2023-08-08T22:16:38;15.40;99.90
26270;DHT22;15937;50.612;6.656;2023-08-08T22:20:41;15.40;99.90
26270;DHT22;15937;50.612;6.656;2023-08-08T22:24:43;15.30;99.90
26270;DHT22;15937;50.612;6.656;2023-08-08T22:28:45;15.30;99.90
26270;DHT22;15937;50.612;6.656;2023-08-08T22:32:46;15.30;99.90
26270;DHT22;15937;50.612;6.656;2023-08-08T22:36:52;15.20;99.90
26270;DHT22;15937;50.612;6.656;2023-08-08T22:40:54;15.20;99.90
26270;DHT22;15937;50.612;6.656;2023-08-08T22:44:55;15.20;99.90
26270;DHT22;15937;50.612;6.656;2023-08-08T22:48:57;15.20;99.90
26270;DHT22;15937;50.612;6.656;2023-08-08T22:53:05;15.20;99.90
26270;DHT22;15937;50.612;6.656;2023-08-08T22:57:07;15.20;99.90
26270;DHT22;15937;50.612;6.656;2023-08-08T23:01:08;15.10;99.90
26270;DHT22;15937;50.612;6.656;2023-08-08T23:05:10;15.10;99.90
26270;DHT22;15937;50.612;6.656;2023-08-08T23:09:13;15.10;99.90
26270;DHT22;15937;50.612;6.656;2023-08-08T23:13:15;15.20;99.90
26270;DHT22;15937;50.612;6.656;2023-08-08T23:17:16;15.30;99.90
26270;DHT22;15937;50.612;6.656;2023-08-08T23:21:18;15.30;99.90
26270;DHT22;15937;50.612;6.656;2023-08-08T23:25:20;15.30;99.90
26270;DHT22;15937;50.612;6.656;2023-08-08T23:29:24;15.20;99.90
26270;DHT22;15937;50.612;6.656;2023-08-08T23:33:26;15.20;99.90
26270;DHT22;15937;50.612;6.656;2023-08-08T23:37:27;15.30;99.90
26270;DHT22;15937;50.612;6.656;2023-08-08T23:41:31;15.20;99.90
26270;DHT22;15937;50.612;6.656;2023-08-08T23:45:34;15.30;99.90
26270;DHT22;15937;50.612;6.656;2023-08-08T23:49:36;15.20;99.90
26270;DHT22;15937;50.612;6.656;2023-08-08T23:53:38;15.30;99.90
26270;DHT22;15937;50.612;6.656;2023-08-08T23:57:39;15.30;99.90
